Gatewood, Missouri
Current Conditions -  °F | °C
As of 11:35 AM on Wednesday 26 Nov 2014 (Local Time) from KARG Reporting Station
Broken Clouds Broken Clouds  
Wind Chill:   Ceiling: 7000
Heat Index:   Visibility: 10mi
Dew Point: -1°   Wind: 8mph
Humidity: 61%   Direction: 260°W
Pressure: 30.02"   Gusts: NA
Location:  36.58°N, 91.09°W
Report Text: KARG 261735Z AUTO 26007KT 10SM SCT060 BKN070 06/M01 A3002 RMK AO1
Loading
Personal Weather Stations






























Interactive Weather Map New forecast layout! Learn more

10-Day Weather Forecast

Advertisements
Track Severe Weather on mobile